createdAt,value
2023-02-27T05:00:33.116Z,0.00
2023-02-27T05:01:33.110Z,-0.03
2023-02-27T05:02:33.126Z,-0.10
2023-02-27T05:03:33.023Z,-0.08
2023-02-27T05:04:33.007Z,-0.08
2023-02-27T05:05:32.999Z,-0.10
2023-02-27T05:06:32.992Z,-0.10
2023-02-27T05:07:32.973Z,-0.15
2023-02-27T05:08:32.968Z,-0.10
2023-02-27T05:09:32.964Z,-0.15
2023-02-27T05:10:32.938Z,-0.08
2023-02-27T05:11:37.964Z,-0.07
2023-02-27T05:12:32.915Z,-0.14
2023-02-27T05:13:32.911Z,-0.03
2023-02-27T05:14:32.910Z,-0.14
2023-02-27T05:15:33.066Z,-0.07
2023-02-27T05:16:33.124Z,-0.11
2023-02-27T05:17:33.089Z,-0.16
2023-02-27T05:18:32.892Z,-0.14
2023-02-27T05:19:32.872Z,-0.07
2023-02-27T05:20:32.832Z,-0.19
2023-02-27T05:21:32.816Z,-0.21
2023-02-27T05:22:37.863Z,-0.15
2023-02-27T05:23:32.827Z,-0.16
2023-02-27T05:24:32.802Z,-0.19
2023-02-27T05:25:32.780Z,-0.14
2023-02-27T05:26:32.772Z,-0.16
2023-02-27T05:27:32.840Z,-0.11
2023-02-27T05:28:32.742Z,-0.10
2023-02-27T05:29:32.730Z,-0.14
2023-02-27T05:30:32.717Z,-0.14
2023-02-27T05:31:32.793Z,-0.14
2023-02-27T05:32:32.762Z,-0.18
2023-02-27T05:33:37.793Z,-0.15
2023-02-27T05:34:32.680Z,-0.19
2023-02-27T05:35:32.755Z,-0.16
2023-02-27T05:36:32.648Z,-0.25
2023-02-27T05:37:32.637Z,-0.14
2023-02-27T05:38:32.644Z,-0.16
2023-02-27T05:39:32.632Z,-0.21
2023-02-27T05:40:32.618Z,-0.18
2023-02-27T05:41:32.609Z,-0.22
2023-02-27T05:42:32.641Z,-0.26
2023-02-27T05:43:32.630Z,-0.19
2023-02-27T05:44:37.602Z,-0.23
2023-02-27T05:45:32.671Z,-0.22
2023-02-27T05:46:32.567Z,-0.26
2023-02-27T05:47:32.544Z,-0.29
2023-02-27T05:48:32.557Z,-0.31
2023-02-27T05:49:32.575Z,-0.26
2023-02-27T05:50:32.497Z,-0.36
2023-02-27T05:51:32.476Z,-0.31
2023-02-27T05:52:32.581Z,-0.28
2023-02-27T05:53:33.032Z,-0.22
2023-02-27T05:54:32.457Z,-0.33
2023-02-27T05:55:37.495Z,-0.26
2023-02-27T05:56:32.447Z,-0.26
2023-02-27T05:57:32.417Z,-0.23
2023-02-27T05:58:32.604Z,-0.31
2023-02-27T05:59:32.404Z,-0.22
2023-02-27T06:00:32.386Z,-0.28
2023-02-27T06:01:32.397Z,-0.19
2023-02-27T06:02:32.433Z,-0.25
2023-02-27T06:03:32.483Z,-0.23
2023-02-27T06:04:32.357Z,-0.19
2023-02-27T06:05:32.342Z,-0.22
2023-02-27T06:06:37.340Z,-0.22
2023-02-27T06:07:32.344Z,-0.22
2023-02-27T06:08:32.322Z,-0.16
2023-02-27T06:09:32.373Z,-0.16
2023-02-27T06:10:32.290Z,-0.18
2023-02-27T06:11:32.272Z,-0.14
2023-02-27T06:12:32.263Z,-0.14
2023-02-27T06:13:32.289Z,-0.19
2023-02-27T06:14:32.244Z,-0.15
2023-02-27T06:15:32.234Z,-0.07
2023-02-27T06:16:32.258Z,-0.08
2023-02-27T06:17:37.238Z,-0.07
2023-02-27T06:18:32.255Z,-0.14
2023-02-27T06:19:32.184Z,-0.01
2023-02-27T06:20:32.225Z,-0.11
2023-02-27T06:21:32.167Z,-0.03
2023-02-27T06:22:32.198Z,-0.15
2023-02-27T06:23:32.180Z,-0.05
2023-02-27T06:24:32.123Z,-0.10
2023-02-27T06:25:32.297Z,-0.07
2023-02-27T06:26:32.183Z,-0.10
2023-02-27T06:27:32.148Z,0.00
2023-02-27T06:28:37.754Z,-0.15
2023-02-27T06:29:32.227Z,-0.15
2023-02-27T06:30:32.338Z,-0.07
2023-02-27T06:31:32.370Z,-0.11
2023-02-27T06:32:32.217Z,-0.10
2023-02-27T06:33:33.076Z,-0.08
2023-02-27T06:34:32.033Z,-0.07
2023-02-27T06:35:32.257Z,-0.04
2023-02-27T06:36:32.007Z,-0.14
2023-02-27T06:37:32.000Z,-0.05
2023-02-27T06:38:32.147Z,-0.10
2023-02-27T06:39:37.326Z,-0.08
2023-02-27T06:40:31.943Z,-0.07
2023-02-27T06:41:31.944Z,-0.05
2023-02-27T06:42:32.122Z,-0.03
2023-02-27T06:43:31.918Z,-0.05
2023-02-27T06:44:31.938Z,-0.15
2023-02-27T06:45:31.893Z,-0.04
2023-02-27T06:46:31.958Z,-0.04
2023-02-27T06:47:31.876Z,-0.07
2023-02-27T06:48:31.870Z,-0.04
2023-02-27T06:49:31.853Z,-0.08
2023-02-27T06:50:36.867Z,-0.05
2023-02-27T06:51:31.846Z,-0.03
2023-02-27T06:52:31.834Z,-0.01
2023-02-27T06:53:31.914Z,0.00
2023-02-27T06:54:31.843Z,0.08
2023-02-27T06:55:31.792Z,0.08
2023-02-27T06:56:31.777Z,0.08
2023-02-27T06:57:31.768Z,0.10
2023-02-27T06:58:31.766Z,0.10
2023-02-27T06:59:31.786Z,0.03
2023-02-27T07:00:31.744Z,0.14
2023-02-27T07:01:36.812Z,0.13
2023-02-27T07:02:31.698Z,0.04
2023-02-27T07:03:31.710Z,0.14
2023-02-27T07:04:31.771Z,0.03
2023-02-27T07:05:31.678Z,0.11
2023-02-27T07:07:35.892Z,0.10
2023-02-27T07:07:37.482Z,0.14
2023-02-27T07:08:32.678Z,0.13
2023-02-27T07:09:31.663Z,0.21
2023-02-27T07:10:31.619Z,0.10
2023-02-27T07:11:31.632Z,0.18
2023-02-27T07:12:36.616Z,0.20
2023-02-27T07:13:31.633Z,0.20
2023-02-27T07:14:31.631Z,0.24
2023-02-27T07:15:31.823Z,0.21
2023-02-27T07:16:31.581Z,0.26
2023-02-27T07:17:31.617Z,0.29
2023-02-27T07:18:31.526Z,0.23
2023-02-27T07:19:31.521Z,0.29
2023-02-27T07:20:31.665Z,0.21
2023-02-27T07:21:31.514Z,0.28
2023-02-27T07:22:31.525Z,0.33
2023-02-27T07:23:36.550Z,0.33
2023-02-27T07:24:31.463Z,0.32
2023-02-27T07:25:31.514Z,0.31
2023-02-27T07:26:31.635Z,0.29
2023-02-27T07:27:31.494Z,0.29
2023-02-27T07:28:31.471Z,0.28
2023-02-27T07:29:31.416Z,0.31
2023-02-27T07:30:31.454Z,0.29
2023-02-27T07:31:31.451Z,0.29
2023-02-27T07:32:31.426Z,0.31
2023-02-27T07:33:31.379Z,0.35
2023-02-27T07:34:36.444Z,0.26
2023-02-27T07:35:31.395Z,0.32
2023-02-27T07:36:31.341Z,0.32
2023-02-27T07:37:31.328Z,0.33
2023-02-27T07:38:31.331Z,0.36
2023-02-27T07:39:31.333Z,0.39
2023-02-27T07:40:31.370Z,0.47
2023-02-27T07:41:31.358Z,0.47
2023-02-27T07:42:31.295Z,0.47
2023-02-27T07:43:31.263Z,0.47
2023-02-27T07:44:31.253Z,0.46
2023-02-27T07:45:36.577Z,0.50
2023-02-27T07:46:31.576Z,0.46
2023-02-27T07:47:31.236Z,0.58
2023-02-27T07:48:31.203Z,0.57
2023-02-27T07:49:31.196Z,0.51
2023-02-27T07:50:31.916Z,0.60
2023-02-27T07:51:31.210Z,0.51
2023-02-27T07:52:31.182Z,0.57
2023-02-27T07:53:31.156Z,0.66
2023-02-27T07:54:31.827Z,0.60
2023-02-27T07:55:31.187Z,0.65
2023-02-27T07:56:36.182Z,0.60
2023-02-27T07:57:31.129Z,0.72
2023-02-27T07:58:31.186Z,0.73
2023-02-27T07:59:31.094Z,0.73
2023-02-27T08:00:31.248Z,0.84
2023-02-27T08:01:31.165Z,0.86
2023-02-27T08:02:31.178Z,0.78
2023-02-27T08:03:31.054Z,0.88
2023-02-27T08:04:31.230Z,0.93
2023-02-27T08:05:31.024Z,0.83
2023-02-27T08:06:31.134Z,0.97
2023-02-27T08:07:36.044Z,0.96
2023-02-27T08:08:30.981Z,1.09
2023-02-27T08:09:30.981Z,1.05
2023-02-27T08:10:30.978Z,1.11
2023-02-27T08:11:31.124Z,1.18
2023-02-27T08:12:31.010Z,1.09
2023-02-27T08:13:59.134Z,1.14
2023-02-27T08:14:31.949Z,1.12
2023-02-27T08:15:30.937Z,1.22
2023-02-27T08:16:31.839Z,1.23
2023-02-27T08:17:30.896Z,1.33
2023-02-27T08:18:35.993Z,1.33
2023-02-27T08:19:30.873Z,1.36
2023-02-27T08:20:30.869Z,1.37
2023-02-27T08:21:31.169Z,1.37
2023-02-27T08:22:30.844Z,1.37
2023-02-27T08:23:30.835Z,1.36
2023-02-27T08:24:30.825Z,1.41
2023-02-27T08:25:30.829Z,1.34
2023-02-27T08:26:31.150Z,1.42
2023-02-27T08:27:30.794Z,1.50
2023-02-27T08:28:30.769Z,1.55
2023-02-27T08:29:36.039Z,1.59
2023-02-27T08:30:30.773Z,1.70
2023-02-27T08:31:30.856Z,1.86
2023-02-27T08:32:30.796Z,1.77
2023-02-27T08:33:30.735Z,1.87
2023-02-27T08:34:30.720Z,1.95
2023-02-27T08:35:30.846Z,2.14
2023-02-27T08:36:30.734Z,2.14
2023-02-27T08:37:30.715Z,2.20
2023-02-27T08:38:30.651Z,2.38
2023-02-27T08:39:30.639Z,2.84
2023-02-27T08:40:35.680Z,3.47
2023-02-27T08:41:30.709Z,3.83
2023-02-27T08:42:30.699Z,4.11
2023-02-27T08:43:30.618Z,4.59
2023-02-27T08:44:30.586Z,4.69
2023-02-27T08:45:30.821Z,5.09
2023-02-27T08:46:30.739Z,5.31
2023-02-27T08:47:30.600Z,5.31
2023-02-27T08:48:30.718Z,5.02
2023-02-27T08:49:30.554Z,5.02
2023-02-27T08:50:30.526Z,4.63
2023-02-27T08:51:35.536Z,4.82
2023-02-27T08:52:30.491Z,4.96
2023-02-27T08:53:30.541Z,4.84
2023-02-27T08:54:30.466Z,4.89
2023-02-27T08:55:30.460Z,4.75
2023-02-27T08:56:30.468Z,4.62
2023-02-27T08:57:30.583Z,4.50
2023-02-27T08:58:30.456Z,4.67
2023-02-27T08:59:30.470Z,4.69
2023-02-27T09:00:30.492Z,5.21
2023-02-27T09:01:31.000Z,5.68
2023-02-27T09:02:35.555Z,5.94
2023-02-27T09:03:34.794Z,6.19
2023-02-27T09:04:31.395Z,6.31
2023-02-27T09:05:30.466Z,6.06
2023-02-27T09:06:30.779Z,6.04
2023-02-27T09:07:30.412Z,5.90
2023-02-27T09:08:30.367Z,5.94
2023-02-27T09:09:30.317Z,6.46
2023-02-27T09:10:30.290Z,6.25
2023-02-27T09:11:30.683Z,6.36
2023-02-27T09:12:30.334Z,6.66
2023-02-27T09:13:35.305Z,6.84
2023-02-27T09:14:30.254Z,6.91
2023-02-27T09:15:30.286Z,7.10
2023-02-27T09:16:30.635Z,7.28
2023-02-27T09:17:30.276Z,7.32
2023-02-27T09:18:30.214Z,6.95
2023-02-27T09:19:30.205Z,6.74
2023-02-27T09:20:30.254Z,6.04
2023-02-27T09:21:30.179Z,5.27
2023-02-27T09:22:30.269Z,4.88
2023-02-27T09:23:30.237Z,4.85
2023-02-27T09:24:35.202Z,4.89
2023-02-27T09:25:30.137Z,4.82
2023-02-27T09:26:42.231Z,5.27
2023-02-27T09:27:31.174Z,5.68
2023-02-27T09:28:30.107Z,5.48
2023-02-27T09:29:30.254Z,5.56
2023-02-27T09:30:30.188Z,5.38
2023-02-27T09:31:32.979Z,5.78
2023-02-27T09:32:30.391Z,5.81
2023-02-27T09:33:30.078Z,5.94
2023-02-27T09:34:30.136Z,6.28
2023-02-27T09:35:35.253Z,6.27
2023-02-27T09:36:30.278Z,6.15
2023-02-27T09:37:30.083Z,5.74
2023-02-27T09:38:30.029Z,5.35
2023-02-27T09:39:30.058Z,5.45
2023-02-27T09:40:30.005Z,5.57
2023-02-27T09:41:29.961Z,5.94
2023-02-27T09:42:29.981Z,6.37
2023-02-27T09:43:29.933Z,6.71
2023-02-27T09:44:44.859Z,6.88
2023-02-27T09:45:30.912Z,6.52
2023-02-27T09:46:34.936Z,6.31
2023-02-27T09:47:29.918Z,6.43
2023-02-27T09:48:29.906Z,6.71
2023-02-27T09:49:29.902Z,6.46
2023-02-27T09:50:29.858Z,6.31
2023-02-27T09:51:30.058Z,6.36
2023-02-27T09:56:41.287Z,6.48
2023-02-27T09:57:41.252Z,6.28
2023-02-27T09:58:41.232Z,6.40
2023-02-27T09:59:41.218Z,6.06
2023-02-27T10:00:41.222Z,5.96
2023-02-27T10:01:41.215Z,6.03
2023-02-27T10:02:41.212Z,5.96
2023-02-27T10:03:41.276Z,5.64
2023-02-27T10:04:41.159Z,5.48
2023-02-27T10:05:41.153Z,5.30
2023-02-27T10:06:41.181Z,5.22
2023-02-27T10:07:46.194Z,5.36
2023-02-27T10:08:41.116Z,5.51
2023-02-27T10:09:41.109Z,5.64
2023-02-27T10:10:41.093Z,5.76
2023-02-27T10:11:41.117Z,6.06
2023-02-27T10:12:41.097Z,5.94
2023-02-27T10:13:41.072Z,5.90
2023-02-27T10:14:41.055Z,5.81
2023-02-27T10:15:41.041Z,5.72
2023-02-27T10:16:41.072Z,5.61
2023-02-27T10:17:41.054Z,5.72
2023-02-27T10:18:46.047Z,5.72
2023-02-27T10:19:40.996Z,5.63
2023-02-27T10:20:40.985Z,5.31
2023-02-27T10:21:40.984Z,5.21
2023-02-27T10:22:40.977Z,5.17
2023-02-27T10:26:06.749Z,6.19
2023-02-27T10:27:06.712Z,6.43
2023-02-27T10:28:06.712Z,6.43
2023-02-27T10:29:06.729Z,6.11
2023-02-27T10:30:06.682Z,5.74
2023-02-27T10:31:06.739Z,5.76
2023-02-27T10:32:06.710Z,5.75
2023-02-27T10:33:06.698Z,5.40
2023-02-27T10:34:06.630Z,5.17
2023-02-27T10:35:06.618Z,5.12
2023-02-27T10:36:06.670Z,4.92
2023-02-27T10:37:11.619Z,5.18
2023-02-27T10:38:06.598Z,5.15
2023-02-27T10:39:06.614Z,5.39
2023-02-27T10:40:06.597Z,5.38
2023-02-27T10:41:06.586Z,5.72
2023-02-27T10:42:06.541Z,5.86
2023-02-27T10:43:06.639Z,6.11
2023-02-27T10:44:06.533Z,6.38
2023-02-27T10:45:06.515Z,6.36
2023-02-27T10:46:06.629Z,6.59
2023-02-27T10:47:06.526Z,6.31
2023-02-27T10:48:11.556Z,6.14
2023-02-27T10:49:06.468Z,6.38
2023-02-27T10:50:06.449Z,6.88
2023-02-27T10:51:06.763Z,7.05
2023-02-27T10:52:06.428Z,6.87
2023-02-27T10:53:06.436Z,6.70
2023-02-27T10:54:06.409Z,6.56
2023-02-27T11:02:38.480Z,7.95
2023-02-27T11:03:40.917Z,8.07
2023-02-27T11:04:38.472Z,8.43
2023-02-27T11:05:38.413Z,8.25
2023-02-27T11:06:38.405Z,8.11
2023-02-27T11:07:38.391Z,8.00
2023-02-27T11:08:38.402Z,7.89
2023-02-27T11:09:38.400Z,8.07
2023-02-27T11:10:38.353Z,7.77
2023-02-27T11:11:38.350Z,7.16
2023-02-27T11:12:38.335Z,6.81
2023-02-27T11:13:43.357Z,6.43
2023-02-27T11:19:48.060Z,6.67
2023-02-27T11:20:39.465Z,6.73
2023-02-27T11:26:39.417Z,7.25
2023-02-27T11:27:38.828Z,6.97
2023-02-27T11:28:38.827Z,7.09
2023-02-27T11:29:38.814Z,7.28
2023-02-27T11:30:38.805Z,7.24
2023-02-27T11:31:38.823Z,7.50
2023-02-27T11:32:38.826Z,7.31
2023-02-27T11:33:38.762Z,7.40
2023-02-27T11:34:38.768Z,7.49
2023-02-27T11:35:38.893Z,7.37
2023-02-27T11:36:38.737Z,6.88
2023-02-27T11:37:43.746Z,6.58
2023-02-27T11:38:38.704Z,6.41
2023-02-27T11:39:38.704Z,6.33
2023-02-27T11:40:38.708Z,6.46
2023-02-27T11:41:38.678Z,6.88
2023-02-27T11:42:38.662Z,7.07
2023-02-27T11:43:38.661Z,7.34
2023-02-27T11:44:50.545Z,7.21
2023-02-27T11:46:08.637Z,6.41
2023-02-27T11:46:46.039Z,5.79
2023-02-27T11:47:38.739Z,5.67
2023-02-27T11:48:43.635Z,6.18
2023-02-27T11:49:38.591Z,6.62
2023-02-27T11:50:38.569Z,6.77
2023-02-27T11:51:38.602Z,7.13
2023-02-27T11:52:38.574Z,7.34
2023-02-27T11:53:38.535Z,7.64
2023-02-27T11:54:38.524Z,7.80
2023-02-27T11:55:38.523Z,8.00
2023-02-27T11:56:38.501Z,7.89
2023-02-27T11:57:38.539Z,7.72
2023-02-27T11:58:38.506Z,7.31
2023-02-27T11:59:43.510Z,7.17
2023-02-27T12:00:38.462Z,6.91
2023-02-27T12:01:38.455Z,6.59
2023-02-27T12:02:39.400Z,6.37
2023-02-27T12:03:38.452Z,6.54
2023-02-27T12:04:38.431Z,6.66
2023-02-27T12:05:38.413Z,6.89
2023-02-27T12:06:38.389Z,7.02
2023-02-27T12:07:38.403Z,6.97
2023-02-27T12:08:38.371Z,6.64
2023-02-27T12:09:38.361Z,6.58
2023-02-27T12:10:43.420Z,6.55
2023-02-27T12:11:38.336Z,6.77
2023-02-27T12:12:38.326Z,6.76
2023-02-27T12:13:38.314Z,6.61
2023-02-27T12:14:38.458Z,6.71
2023-02-27T12:15:38.301Z,6.80
2023-02-27T12:16:38.328Z,6.99
2023-02-27T12:17:38.270Z,6.61
2023-02-27T12:18:38.294Z,6.43
2023-02-27T12:19:38.245Z,6.41
2023-02-27T12:20:38.250Z,6.51
2023-02-27T12:21:43.245Z,6.74
2023-02-27T12:22:38.244Z,6.92
2023-02-27T12:23:38.231Z,6.92
2023-02-27T12:24:38.196Z,6.84
2023-02-27T12:25:38.200Z,6.74
2023-02-27T12:26:38.164Z,6.88
2023-02-27T12:27:38.169Z,7.05
2023-02-27T12:28:38.165Z,7.31
2023-02-27T12:29:38.130Z,7.15
2023-02-27T12:30:38.134Z,7.02
2023-02-27T12:31:38.180Z,6.87
2023-02-27T12:32:43.118Z,6.76
2023-02-27T12:33:38.087Z,6.73
2023-02-27T12:34:38.084Z,6.85
2023-02-27T12:35:38.103Z,6.58
2023-02-27T12:36:38.058Z,6.69
2023-02-27T12:37:38.057Z,7.31
2023-02-27T12:38:38.039Z,7.85
2023-02-27T12:39:38.034Z,8.58
2023-02-27T12:40:38.031Z,9.21
2023-02-27T12:41:38.042Z,9.47
2023-02-27T12:42:38.029Z,9.29
2023-02-27T12:43:42.995Z,9.91
2023-02-27T12:44:37.983Z,9.38
2023-02-27T12:45:38.004Z,8.98
2023-02-27T12:46:37.974Z,9.21
2023-02-27T12:47:37.925Z,9.33
2023-02-27T12:48:37.909Z,9.20
2023-02-27T12:49:37.898Z,9.24
2023-02-27T12:50:37.885Z,8.96
2023-02-27T12:51:37.889Z,8.34
2023-02-27T12:52:37.957Z,7.71
2023-02-27T12:53:37.857Z,8.02
2023-02-27T12:54:44.622Z,8.53
2023-02-27T12:55:37.839Z,9.08
2023-02-27T12:56:37.829Z,9.18
2023-02-27T12:57:37.808Z,9.29
2023-02-27T12:58:37.813Z,9.21
2023-02-27T12:59:37.784Z,8.83
2023-02-27T13:00:37.770Z,8.79
2023-02-27T13:01:37.856Z,8.62
2023-02-27T13:02:37.755Z,8.89
2023-02-27T13:03:37.818Z,8.98
2023-02-27T13:04:37.810Z,8.89
2023-02-27T13:05:42.739Z,8.94
2023-02-27T13:06:37.721Z,9.04
2023-02-27T13:07:37.700Z,9.51
2023-02-27T13:08:37.687Z,10.23
2023-02-27T13:09:37.685Z,10.71
2023-02-27T13:10:37.688Z,10.64
2023-02-27T13:11:37.660Z,10.18
2023-02-27T13:12:37.653Z,10.01
2023-02-27T13:13:37.631Z,9.97
2023-02-27T13:14:37.622Z,9.68
2023-02-27T13:15:37.610Z,9.46
2023-02-27T13:16:42.724Z,8.92
2023-02-27T13:17:37.590Z,8.07
2023-02-27T13:18:37.577Z,7.80
2023-02-27T13:19:37.568Z,7.72
2023-02-27T13:20:37.553Z,7.50
2023-02-27T13:21:37.542Z,7.09
2023-02-27T13:22:37.575Z,6.79
2023-02-27T13:23:37.523Z,6.43
2023-02-27T13:24:37.508Z,6.30
2023-02-27T13:25:37.497Z,6.06
2023-02-27T13:26:37.514Z,6.18
2023-02-27T13:27:42.507Z,6.03
2023-02-27T13:28:37.492Z,6.15
2023-02-27T13:29:37.451Z,6.19
2023-02-27T13:30:37.447Z,6.09
2023-02-27T13:31:37.467Z,6.15
2023-02-27T13:32:44.243Z,6.11
2023-02-27T13:33:37.411Z,5.89
2023-02-27T13:34:37.427Z,5.91
2023-02-27T13:35:37.450Z,5.85
2023-02-27T13:36:37.388Z,5.86
2023-02-27T13:37:37.400Z,5.82
2023-02-27T13:38:42.376Z,5.75
2023-02-27T13:39:37.342Z,5.76
2023-02-27T13:40:37.361Z,5.74
2023-02-27T13:41:37.370Z,5.63
2023-02-27T13:42:37.340Z,5.43
2023-02-27T13:43:51.180Z,5.39
2023-02-27T13:44:37.284Z,5.31
2023-02-27T13:45:37.298Z,5.39
2023-02-27T13:46:37.280Z,5.38
2023-02-27T13:47:37.267Z,5.42
2023-02-27T13:48:37.238Z,5.42
2023-02-27T13:49:42.249Z,5.33
2023-02-27T13:50:37.211Z,5.27
2023-02-27T13:51:37.202Z,5.15
2023-02-27T13:52:37.230Z,5.07
2023-02-27T13:53:37.197Z,5.21
2023-02-27T13:54:37.168Z,5.18
2023-02-27T13:55:37.195Z,5.21
2023-02-27T13:56:37.160Z,5.25
2023-02-27T13:57:37.146Z,5.17
2023-02-27T13:58:37.186Z,5.20
2023-02-27T13:59:37.112Z,5.17
2023-02-27T14:00:42.123Z,5.27
2023-02-27T14:01:37.162Z,5.33
2023-02-27T14:02:40.129Z,5.40
2023-02-27T14:03:37.065Z,5.40
2023-02-27T14:04:37.074Z,5.35
2023-02-27T14:05:37.061Z,5.36
2023-02-27T14:06:37.034Z,5.42
2023-02-27T14:07:37.040Z,5.46
2023-02-27T14:08:37.012Z,5.40
2023-02-27T14:09:37.083Z,5.38
2023-02-27T14:10:37.072Z,5.38
2023-02-27T14:11:42.004Z,5.31
2023-02-27T14:12:45.547Z,5.20
2023-02-27T14:13:37.967Z,5.04
2023-02-27T14:14:37.064Z,5.09
2023-02-27T14:15:36.940Z,5.18
2023-02-27T14:16:36.938Z,5.22
2023-02-27T14:17:36.937Z,5.25
2023-02-27T14:18:36.903Z,5.27
2023-02-27T14:19:36.885Z,5.20
2023-02-27T14:20:36.873Z,5.15
2023-02-27T14:21:36.868Z,5.15
2023-02-27T14:22:41.926Z,5.15
2023-02-27T14:23:36.851Z,5.17
2023-02-27T14:24:36.828Z,5.22
2023-02-27T14:25:36.829Z,5.18
2023-02-27T14:26:36.855Z,5.21
2023-02-27T14:27:36.795Z,5.22
2023-02-27T14:28:36.816Z,5.15
2023-02-27T14:29:36.770Z,5.18
2023-02-27T14:30:36.778Z,5.27
2023-02-27T14:31:36.882Z,5.30
2023-02-27T14:32:36.743Z,5.20
2023-02-27T14:33:41.764Z,5.22
2023-02-27T14:34:36.745Z,5.17
2023-02-27T14:35:36.727Z,5.21
2023-02-27T14:36:36.691Z,5.12
2023-02-27T14:37:36.679Z,5.22
2023-02-27T14:38:36.682Z,5.17
2023-02-27T14:39:36.674Z,5.10
2023-02-27T14:40:36.705Z,5.18
2023-02-27T14:41:36.653Z,5.15
2023-02-27T14:42:36.673Z,5.15
2023-02-27T14:43:36.619Z,5.04
2023-02-27T14:44:41.656Z,5.13
2023-02-27T14:45:36.607Z,5.17
2023-02-27T14:46:36.712Z,5.27
2023-02-27T14:47:36.604Z,5.27
2023-02-27T14:48:36.581Z,5.17
2023-02-27T14:49:36.560Z,5.13
2023-02-27T14:50:36.591Z,5.18
2023-02-27T14:51:36.526Z,5.07
2023-02-27T14:52:36.524Z,5.02
2023-02-27T14:53:36.544Z,4.97
2023-02-27T14:54:36.517Z,5.04
2023-02-27T14:55:41.504Z,5.03
2023-02-27T14:56:36.472Z,5.13
2023-02-27T14:57:36.476Z,5.03
2023-02-27T14:58:36.450Z,5.24
2023-02-27T14:59:36.525Z,5.21
2023-02-27T15:00:36.425Z,5.15
2023-02-27T15:01:36.500Z,5.10
2023-02-27T15:02:36.430Z,5.06
2023-02-27T15:03:36.425Z,5.02
2023-02-27T15:04:36.465Z,4.89
2023-02-27T15:05:36.402Z,4.86
2023-02-27T15:06:41.385Z,4.94
2023-02-27T15:07:36.379Z,4.91
2023-02-27T15:08:36.348Z,4.86
2023-02-27T15:09:36.351Z,4.86
2023-02-27T15:10:36.311Z,4.89
2023-02-27T15:11:36.323Z,4.89
2023-02-27T15:12:36.292Z,4.75
2023-02-27T15:13:36.290Z,4.89
2023-02-27T15:14:36.428Z,4.86
2023-02-27T15:15:36.299Z,4.75
2023-02-27T15:16:36.530Z,4.82
2023-02-27T15:17:41.341Z,4.72
2023-02-27T15:18:36.225Z,4.80
2023-02-27T15:19:36.227Z,4.80
2023-02-27T15:20:36.200Z,4.75
2023-02-27T15:21:36.190Z,4.88
2023-02-27T15:22:39.335Z,4.82
2023-02-27T15:23:36.185Z,4.77
2023-02-27T15:24:49.232Z,4.72
2023-02-27T15:25:36.162Z,4.78
2023-02-27T15:26:36.133Z,4.80
2023-02-27T15:27:36.122Z,4.72
2023-02-27T15:28:41.141Z,4.84
2023-02-27T15:29:36.147Z,4.84
2023-02-27T15:30:36.096Z,4.85
2023-02-27T15:31:36.136Z,4.73
2023-02-27T15:32:36.064Z,4.73
2023-02-27T15:33:36.084Z,4.77
2023-02-27T15:34:36.045Z,4.82
2023-02-27T15:35:36.103Z,4.78
2023-02-27T15:36:36.052Z,4.77
2023-02-27T15:37:36.012Z,4.77
2023-02-27T15:38:36.006Z,4.78
2023-02-27T15:39:41.011Z,4.77
2023-02-27T15:40:35.994Z,4.85
2023-02-27T15:41:36.003Z,4.77
2023-02-27T15:42:35.958Z,4.77
2023-02-27T15:43:35.941Z,4.73
2023-02-27T15:44:35.933Z,4.82
2023-02-27T15:45:35.954Z,4.82
2023-02-27T15:46:35.953Z,4.88
2023-02-27T15:47:35.921Z,4.84
2023-02-27T15:48:35.898Z,4.75
2023-02-27T15:49:35.900Z,4.80
2023-02-27T15:50:40.900Z,4.70
2023-02-27T15:51:35.852Z,4.75
2023-02-27T15:52:35.842Z,4.77
2023-02-27T15:53:35.854Z,4.82
2023-02-27T15:54:35.820Z,4.80
2023-02-27T15:55:35.814Z,4.73
2023-02-27T15:56:35.882Z,4.77
2023-02-27T15:57:35.782Z,4.75
2023-02-27T15:58:35.850Z,4.75
2023-02-27T15:59:35.808Z,4.75
2023-02-27T16:00:35.771Z,4.72
2023-02-27T16:01:40.827Z,4.73
2023-02-27T16:02:35.765Z,4.75
2023-02-27T16:03:35.784Z,4.70
2023-02-27T16:04:35.733Z,4.73
2023-02-27T16:05:35.756Z,4.73
2023-02-27T16:06:35.778Z,4.77
2023-02-27T16:07:35.681Z,4.75
2023-02-27T16:08:35.658Z,4.73
2023-02-27T16:09:35.652Z,4.73
2023-02-27T16:10:35.643Z,4.72
2023-02-27T16:11:35.694Z,4.75
2023-02-27T16:12:40.644Z,4.73
2023-02-27T16:13:35.600Z,4.69
2023-02-27T16:14:35.588Z,4.72
2023-02-27T16:15:35.586Z,4.73
2023-02-27T16:16:35.654Z,4.66
2023-02-27T16:17:35.568Z,4.72
2023-02-27T16:18:35.557Z,4.59
2023-02-27T16:19:35.540Z,4.67
2023-02-27T16:20:35.676Z,4.63
2023-02-27T16:21:35.537Z,4.60
2023-02-27T16:22:35.500Z,4.69
2023-02-27T16:23:40.513Z,4.63
2023-02-27T16:24:35.505Z,4.63
2023-02-27T16:25:35.479Z,4.65
2023-02-27T16:26:35.462Z,4.63
2023-02-27T16:27:35.460Z,4.62
2023-02-27T16:28:35.445Z,4.62
2023-02-27T16:29:35.428Z,4.67
2023-02-27T16:30:35.452Z,4.55
2023-02-27T16:31:35.431Z,4.52
2023-02-27T16:32:35.448Z,4.55
2023-02-27T16:33:35.376Z,4.47
2023-02-27T16:34:46.840Z,4.54
2023-02-27T16:35:36.364Z,4.47
2023-02-27T16:36:35.370Z,4.48
2023-02-27T16:37:35.374Z,4.42
2023-02-27T16:38:35.320Z,4.54
2023-02-27T16:39:35.304Z,4.51
2023-02-27T16:40:35.388Z,4.47
2023-02-27T16:41:35.465Z,4.45
2023-02-27T16:42:35.291Z,4.47
2023-02-27T16:43:35.263Z,4.51
2023-02-27T16:44:35.252Z,4.48
2023-02-27T16:45:40.412Z,4.45
2023-02-27T16:46:35.250Z,4.40
2023-02-27T16:47:35.215Z,4.42
2023-02-27T16:48:35.269Z,4.41
2023-02-27T16:49:35.205Z,4.40
2023-02-27T16:50:35.185Z,4.48
2023-02-27T16:51:35.181Z,4.40
2023-02-27T16:52:35.161Z,4.45
2023-02-27T16:53:35.166Z,4.37
2023-02-27T16:54:35.157Z,4.40
2023-02-27T16:55:35.138Z,4.45
2023-02-27T16:56:40.666Z,4.36
2023-02-27T16:57:35.100Z,4.27
2023-02-27T16:58:35.098Z,4.36
2023-02-27T16:59:35.079Z,4.32
2023-02-27T17:00:35.087Z,4.32
2023-02-27T17:01:35.141Z,4.29
2023-02-27T17:02:35.052Z,4.26
2023-02-27T17:03:35.035Z,4.29
2023-02-27T17:04:35.068Z,4.27
2023-02-27T17:05:35.012Z,4.18
2023-02-27T17:06:35.029Z,4.20
2023-02-27T17:07:40.022Z,4.15
2023-02-27T17:08:35.029Z,4.16
2023-02-27T17:09:34.999Z,4.14
2023-02-27T17:10:34.963Z,4.12
2023-02-27T17:11:34.952Z,4.16
2023-02-27T17:12:34.983Z,4.08
2023-02-27T17:13:34.927Z,4.04
2023-02-27T17:14:34.921Z,4.06
2023-02-27T17:15:34.916Z,4.02
2023-02-27T17:16:34.911Z,4.05
2023-02-27T17:17:34.896Z,3.90
2023-02-27T17:18:39.934Z,3.93
2023-02-27T17:19:34.867Z,3.90
2023-02-27T17:20:34.858Z,3.88
2023-02-27T17:21:34.853Z,3.96
2023-02-27T17:22:34.836Z,3.91
2023-02-27T17:23:34.813Z,3.96
2023-02-27T17:24:34.834Z,3.96
2023-02-27T17:25:34.833Z,3.96
2023-02-27T17:26:34.802Z,3.94
2023-02-27T17:27:34.773Z,3.88
2023-02-27T17:28:34.757Z,3.79
2023-02-27T17:29:39.771Z,3.72
2023-02-27T17:30:34.817Z,3.79
2023-02-27T17:31:34.721Z,3.79
2023-02-27T17:32:34.725Z,3.75
2023-02-27T17:33:34.704Z,3.73
2023-02-27T17:34:34.690Z,3.83
2023-02-27T17:35:34.694Z,3.78
2023-02-27T17:36:34.704Z,3.75
2023-02-27T17:37:34.670Z,3.73
2023-02-27T17:38:34.656Z,3.69
2023-02-27T17:39:34.632Z,3.72
2023-02-27T17:40:39.662Z,3.73
2023-02-27T17:41:34.615Z,3.60
2023-02-27T17:42:34.620Z,3.57
2023-02-27T17:43:34.586Z,3.62
2023-02-27T17:44:34.581Z,3.69
2023-02-27T17:45:34.566Z,3.60
2023-02-27T17:46:34.623Z,3.68
2023-02-27T17:47:34.551Z,3.68
2023-02-27T17:48:34.555Z,3.62
2023-02-27T17:49:34.585Z,3.62
2023-02-27T17:50:34.512Z,3.58
2023-02-27T17:51:39.527Z,3.61
2023-02-27T17:52:34.502Z,3.61
2023-02-27T17:53:34.477Z,3.57
2023-02-27T17:54:34.491Z,3.51
2023-02-27T17:55:34.455Z,3.55
2023-02-27T17:56:36.656Z,3.61
2023-02-27T17:57:34.439Z,3.45
2023-02-27T17:58:34.420Z,3.60
2023-02-27T17:59:34.406Z,3.54
2023-02-27T18:00:34.430Z,3.51
2023-02-27T18:01:34.502Z,3.51
2023-02-27T18:02:39.468Z,3.48
2023-02-27T18:03:34.368Z,3.39
2023-02-27T18:04:34.346Z,3.45
2023-02-27T18:05:34.340Z,3.48
2023-02-27T18:06:34.349Z,3.45
2023-02-27T18:07:34.318Z,3.45
2023-02-27T18:08:34.314Z,3.43
2023-02-27T18:09:34.293Z,3.35
2023-02-27T18:10:34.292Z,3.42
2023-02-27T18:11:34.272Z,3.33
2023-02-27T18:12:34.333Z,3.36
2023-02-27T18:13:39.279Z,3.28
2023-02-27T18:14:34.234Z,3.36
2023-02-27T18:15:34.344Z,3.32
2023-02-27T18:16:34.213Z,3.29
2023-02-27T18:17:34.198Z,3.23
2023-02-27T18:18:34.236Z,3.17
2023-02-27T18:19:34.178Z,3.28
2023-02-27T18:20:34.179Z,3.23
2023-02-27T18:21:34.236Z,3.21
2023-02-27T18:22:34.156Z,3.20
2023-02-27T18:23:34.142Z,3.14
2023-02-27T18:24:39.229Z,3.13
2023-02-27T18:25:34.116Z,3.02
2023-02-27T18:26:34.537Z,3.14
2023-02-27T18:27:34.124Z,3.03
2023-02-27T18:28:34.102Z,3.10
2023-02-27T18:29:34.074Z,3.06
2023-02-27T18:30:34.078Z,3.11
2023-02-27T18:31:34.043Z,3.05
2023-02-27T18:32:34.032Z,3.05
2023-02-27T18:33:34.025Z,2.99
2023-02-27T18:34:34.016Z,2.96
2023-02-27T18:35:39.062Z,3.08
2023-02-27T18:36:34.022Z,3.03
2023-02-27T18:37:33.974Z,3.03
2023-02-27T18:38:33.965Z,3.05